sensor_id;sensor_type;location;lat;lon;timestamp;temperature;humidity
57709;SHT35;42558;52.388;13.390;2023-03-13T00:00:06;6.21;88.98
57709;SHT35;42558;52.388;13.390;2023-03-13T00:02:38;6.28;88.84
57709;SHT35;42558;52.388;13.390;2023-03-13T00:05:08;6.35;88.78
57709;SHT35;42558;52.388;13.390;2023-03-13T00:07:38;6.34;88.72
57709;SHT35;42558;52.388;13.390;2023-03-13T00:10:08;6.34;88.98
57709;SHT35;42558;52.388;13.390;2023-03-13T00:12:38;6.38;89.15
57709;SHT35;42558;52.388;13.390;2023-03-13T00:15:08;6.40;89.34
57709;SHT35;42558;52.388;13.390;2023-03-13T00:17:39;6.41;89.47
57709;SHT35;42558;52.388;13.390;2023-03-13T00:20:09;6.41;89.52
57709;SHT35;42558;52.388;13.390;2023-03-13T00:22:39;6.45;89.84
57709;SHT35;42558;52.388;13.390;2023-03-13T00:25:09;6.44;89.92
57709;SHT35;42558;52.388;13.390;2023-03-13T00:27:39;6.44;90.22
57709;SHT35;42558;52.388;13.390;2023-03-13T00:30:09;6.45;90.64
57709;SHT35;42558;52.388;13.390;2023-03-13T00:32:41;6.40;90.68
57709;SHT35;42558;52.388;13.390;2023-03-13T00:35:12;6.40;90.93
57709;SHT35;42558;52.388;13.390;2023-03-13T00:37:43;6.41;91.05
57709;SHT35;42558;52.388;13.390;2023-03-13T00:40:13;6.38;91.04
57709;SHT35;42558;52.388;13.390;2023-03-13T00:42:43;6.36;91.15
57709;SHT35;42558;52.388;13.390;2023-03-13T00:45:13;6.38;91.21
57709;SHT35;42558;52.388;13.390;2023-03-13T00:47:43;6.36;91.25
57709;SHT35;42558;52.388;13.390;2023-03-13T00:50:12;6.36;91.30
57709;SHT35;42558;52.388;13.390;2023-03-13T00:52:42;6.35;91.27
57709;SHT35;42558;52.388;13.390;2023-03-13T00:55:12;6.32;91.20
57709;SHT35;42558;52.388;13.390;2023-03-13T00:57:42;6.31;91.18
57709;SHT35;42558;52.388;13.390;2023-03-13T01:00:12;6.32;91.20
57709;SHT35;42558;52.388;13.390;2023-03-13T01:02:44;6.31;91.18
57709;SHT35;42558;52.388;13.390;2023-03-13T01:05:14;6.31;91.19
57709;SHT35;42558;52.388;13.390;2023-03-13T01:07:44;6.29;91.21
57709;SHT35;42558;52.388;13.390;2023-03-13T01:10:14;6.26;91.34
57709;SHT35;42558;52.388;13.390;2023-03-13T01:12:44;6.24;91.43
57709;SHT35;42558;52.388;13.390;2023-03-13T01:15:14;6.20;91.43
57709;SHT35;42558;52.388;13.390;2023-03-13T01:17:45;6.18;91.49
57709;SHT35;42558;52.388;13.390;2023-03-13T01:20:15;6.13;91.49
57709;SHT35;42558;52.388;13.390;2023-03-13T01:22:45;6.11;91.53
57709;SHT35;42558;52.388;13.390;2023-03-13T01:25:15;6.09;91.60
57709;SHT35;42558;52.388;13.390;2023-03-13T01:27:46;6.08;91.57
57709;SHT35;42558;52.388;13.390;2023-03-13T01:30:16;6.03;91.50
57709;SHT35;42558;52.388;13.390;2023-03-13T01:32:46;6.02;91.54
57709;SHT35;42558;52.388;13.390;2023-03-13T01:35:16;6.02;91.52
57709;SHT35;42558;52.388;13.390;2023-03-13T01:37:44;6.02;91.45
57709;SHT35;42558;52.388;13.390;2023-03-13T01:40:12;6.03;91.31
57709;SHT35;42558;52.388;13.390;2023-03-13T01:45:57;5.97;91.20
57709;SHT35;42558;52.388;13.390;2023-03-13T01:48:48;5.97;91.21
57709;SHT35;42558;52.388;13.390;2023-03-13T01:51:48;5.95;91.18
57709;SHT35;42558;52.388;13.390;2023-03-13T01:54:31;5.94;91.20
57709;SHT35;42558;52.388;13.390;2023-03-13T01:57:21;5.97;91.20
57709;SHT35;42558;52.388;13.390;2023-03-13T02:00:09;5.99;91.09
57709;SHT35;42558;52.388;13.390;2023-03-13T02:02:48;5.99;90.95
57709;SHT35;42558;52.388;13.390;2023-03-13T02:05:24;5.98;90.90
57709;SHT35;42558;52.388;13.390;2023-03-13T02:10:37;5.99;90.82
57709;SHT35;42558;52.388;13.390;2023-03-13T02:13:15;6.05;90.70
57709;SHT35;42558;52.388;13.390;2023-03-13T02:15:46;6.09;90.43
57709;SHT35;42558;52.388;13.390;2023-03-13T02:18:14;6.11;90.31
57709;SHT35;42558;52.388;13.390;2023-03-13T02:20:43;6.13;90.20
57709;SHT35;42558;52.388;13.390;2023-03-13T02:26:01;6.15;90.20
57709;SHT35;42558;52.388;13.390;2023-03-13T02:28:32;6.16;90.13
57709;SHT35;42558;52.388;13.390;2023-03-13T02:31:07;6.16;90.09
57709;SHT35;42558;52.388;13.390;2023-03-13T02:33:39;6.13;90.02
57709;SHT35;42558;52.388;13.390;2023-03-13T02:36:11;6.13;90.04
57709;SHT35;42558;52.388;13.390;2023-03-13T02:38:47;6.17;90.10
57709;SHT35;42558;52.388;13.390;2023-03-13T02:41:25;6.22;89.97
57709;SHT35;42558;52.388;13.390;2023-03-13T02:43:57;6.24;89.94
57709;SHT35;42558;52.388;13.390;2023-03-13T02:46:27;6.24;90.00
57709;SHT35;42558;52.388;13.390;2023-03-13T02:48:56;6.30;89.96
57709;SHT35;42558;52.388;13.390;2023-03-13T02:54:11;6.39;89.68
57709;SHT35;42558;52.388;13.390;2023-03-13T02:56:47;6.41;89.51
57709;SHT35;42558;52.388;13.390;2023-03-13T02:59:20;6.43;89.50
57709;SHT35;42558;52.388;13.390;2023-03-13T03:01:49;6.49;89.34
57709;SHT35;42558;52.388;13.390;2023-03-13T03:04:21;6.51;89.21
57709;SHT35;42558;52.388;13.390;2023-03-13T03:06:53;6.54;89.08
57709;SHT35;42558;52.388;13.390;2023-03-13T03:09:23;6.59;88.80
57709;SHT35;42558;52.388;13.390;2023-03-13T03:11:53;6.59;88.67
57709;SHT35;42558;52.388;13.390;2023-03-13T03:14:23;6.60;88.61
57709;SHT35;42558;52.388;13.390;2023-03-13T03:16:53;6.59;88.65
57709;SHT35;42558;52.388;13.390;2023-03-13T03:19:23;6.63;88.59
57709;SHT35;42558;52.388;13.390;2023-03-13T03:21:53;6.62;88.52
57709;SHT35;42558;52.388;13.390;2023-03-13T03:24:23;6.64;88.48
57709;SHT35;42558;52.388;13.390;2023-03-13T03:26:52;6.67;88.35
57709;SHT35;42558;52.388;13.390;2023-03-13T03:29:22;6.69;88.31
57709;SHT35;42558;52.388;13.390;2023-03-13T03:31:52;6.72;88.24
57709;SHT35;42558;52.388;13.390;2023-03-13T03:34:23;6.72;88.21
57709;SHT35;42558;52.388;13.390;2023-03-13T03:36:53;6.74;88.31
57709;SHT35;42558;52.388;13.390;2023-03-13T03:39:22;6.70;88.36
57709;SHT35;42558;52.388;13.390;2023-03-13T03:41:53;6.66;88.58
57709;SHT35;42558;52.388;13.390;2023-03-13T03:44:23;6.67;88.78
57709;SHT35;42558;52.388;13.390;2023-03-13T03:46:52;6.76;88.57
57709;SHT35;42558;52.388;13.390;2023-03-13T03:49:22;6.89;87.80
57709;SHT35;42558;52.388;13.390;2023-03-13T03:51:52;6.85;87.80
57709;SHT35;42558;52.388;13.390;2023-03-13T03:54:22;6.82;87.84
57709;SHT35;42558;52.388;13.390;2023-03-13T03:56:52;6.84;87.90
57709;SHT35;42558;52.388;13.390;2023-03-13T03:59:20;6.92;87.52
57709;SHT35;42558;52.388;13.390;2023-03-13T04:01:49;7.00;87.08
57709;SHT35;42558;52.388;13.390;2023-03-13T04:04:17;7.03;86.81
57709;SHT35;42558;52.388;13.390;2023-03-13T04:06:45;7.08;86.54
57709;SHT35;42558;52.388;13.390;2023-03-13T04:09:14;7.09;86.42
57709;SHT35;42558;52.388;13.390;2023-03-13T04:11:42;7.06;86.56
57709;SHT35;42558;52.388;13.390;2023-03-13T04:14:11;7.08;86.46
57709;SHT35;42558;52.388;13.390;2023-03-13T04:16:39;7.14;86.30
57709;SHT35;42558;52.388;13.390;2023-03-13T04:19:08;7.23;85.82
57709;SHT35;42558;52.388;13.390;2023-03-13T04:21:36;7.18;85.94
57709;SHT35;42558;52.388;13.390;2023-03-13T04:24:05;7.20;85.95
57709;SHT35;42558;52.388;13.390;2023-03-13T04:26:33;7.25;85.74
57709;SHT35;42558;52.388;13.390;2023-03-13T04:29:02;7.30;85.43
57709;SHT35;42558;52.388;13.390;2023-03-13T04:31:30;7.30;85.45
57709;SHT35;42558;52.388;13.390;2023-03-13T04:33:58;7.33;85.32
57709;SHT35;42558;52.388;13.390;2023-03-13T04:36:27;7.29;85.43
57709;SHT35;42558;52.388;13.390;2023-03-13T04:38:55;7.29;85.60
57709;SHT35;42558;52.388;13.390;2023-03-13T04:41:24;7.33;85.55
57709;SHT35;42558;52.388;13.390;2023-03-13T04:43:52;7.32;85.71
57709;SHT35;42558;52.388;13.390;2023-03-13T04:46:21;7.28;85.98
57709;SHT35;42558;52.388;13.390;2023-03-13T04:48:49;7.30;85.94
57709;SHT35;42558;52.388;13.390;2023-03-13T04:51:18;7.34;85.79
57709;SHT35;42558;52.388;13.390;2023-03-13T04:53:46;7.32;85.90
57709;SHT35;42558;52.388;13.390;2023-03-13T04:56:24;7.28;86.21
57709;SHT35;42558;52.388;13.390;2023-03-13T04:59:11;7.24;86.53
57709;SHT35;42558;52.388;13.390;2023-03-13T05:01:43;7.21;86.85
57709;SHT35;42558;52.388;13.390;2023-03-13T05:04:13;7.21;87.00
57709;SHT35;42558;52.388;13.390;2023-03-13T05:06:43;7.22;87.14
57709;SHT35;42558;52.388;13.390;2023-03-13T05:09:13;7.22;87.23
57709;SHT35;42558;52.388;13.390;2023-03-13T05:11:43;7.24;87.21
57709;SHT35;42558;52.388;13.390;2023-03-13T05:14:13;7.19;87.38
57709;SHT35;42558;52.388;13.390;2023-03-13T05:16:43;7.15;87.64
57709;SHT35;42558;52.388;13.390;2023-03-13T05:19:12;7.11;87.92
57709;SHT35;42558;52.388;13.390;2023-03-13T05:21:42;7.13;88.00
57709;SHT35;42558;52.388;13.390;2023-03-13T05:24:12;7.12;88.17
57709;SHT35;42558;52.388;13.390;2023-03-13T05:26:42;7.07;88.22
57709;SHT35;42558;52.388;13.390;2023-03-13T05:29:12;7.05;88.47
57709;SHT35;42558;52.388;13.390;2023-03-13T05:31:41;7.02;88.75
57709;SHT35;42558;52.388;13.390;2023-03-13T05:34:11;7.01;88.98
57709;SHT35;42558;52.388;13.390;2023-03-13T05:36:41;7.01;89.12
57709;SHT35;42558;52.388;13.390;2023-03-13T05:39:11;6.99;89.39
57709;SHT35;42558;52.388;13.390;2023-03-13T05:41:41;7.01;89.41
57709;SHT35;42558;52.388;13.390;2023-03-13T05:44:10;6.99;89.55
57709;SHT35;42558;52.388;13.390;2023-03-13T05:46:40;6.98;89.61
57709;SHT35;42558;52.388;13.390;2023-03-13T05:49:10;7.00;89.77
57709;SHT35;42558;52.388;13.390;2023-03-13T05:51:40;7.04;89.83
57709;SHT35;42558;52.388;13.390;2023-03-13T05:54:10;7.02;89.83
57709;SHT35;42558;52.388;13.390;2023-03-13T05:56:43;7.03;89.90
57709;SHT35;42558;52.388;13.390;2023-03-13T05:59:13;7.02;90.03
57709;SHT35;42558;52.388;13.390;2023-03-13T06:01:43;7.04;90.09
57709;SHT35;42558;52.388;13.390;2023-03-13T06:04:12;7.09;90.01
57709;SHT35;42558;52.388;13.390;2023-03-13T06:06:42;7.11;89.96
57709;SHT35;42558;52.388;13.390;2023-03-13T06:09:13;7.10;90.03
57709;SHT35;42558;52.388;13.390;2023-03-13T06:11:43;7.13;90.08
57709;SHT35;42558;52.388;13.390;2023-03-13T06:14:12;7.14;90.04
57709;SHT35;42558;52.388;13.390;2023-03-13T06:16:42;7.13;90.11
57709;SHT35;42558;52.388;13.390;2023-03-13T06:19:12;7.15;90.21
57709;SHT35;42558;52.388;13.390;2023-03-13T06:21:43;7.16;90.32
57709;SHT35;42558;52.388;13.390;2023-03-13T06:24:14;7.19;90.42
57709;SHT35;42558;52.388;13.390;2023-03-13T06:26:44;7.22;90.42
57709;SHT35;42558;52.388;13.390;2023-03-13T06:29:18;7.27;90.34
57709;SHT35;42558;52.388;13.390;2023-03-13T06:31:48;7.27;90.33
57709;SHT35;42558;52.388;13.390;2023-03-13T06:34:18;7.35;90.04
57709;SHT35;42558;52.388;13.390;2023-03-13T06:36:48;7.38;89.89
57709;SHT35;42558;52.388;13.390;2023-03-13T06:39:17;7.38;90.00
57709;SHT35;42558;52.388;13.390;2023-03-13T06:41:47;7.41;89.95
57709;SHT35;42558;52.388;13.390;2023-03-13T06:44:17;7.41;90.01
57709;SHT35;42558;52.388;13.390;2023-03-13T06:46:47;7.40;90.21
57709;SHT35;42558;52.388;13.390;2023-03-13T06:49:16;7.41;90.30
57709;SHT35;42558;52.388;13.390;2023-03-13T06:51:46;7.43;90.26
57709;SHT35;42558;52.388;13.390;2023-03-13T06:54:16;7.47;90.12
57709;SHT35;42558;52.388;13.390;2023-03-13T06:56:44;7.47;90.29
57709;SHT35;42558;52.388;13.390;2023-03-13T06:59:13;7.49;90.40
57709;SHT35;42558;52.388;13.390;2023-03-13T07:01:41;7.53;90.41
57709;SHT35;42558;52.388;13.390;2023-03-13T07:04:11;7.54;90.52
57709;SHT35;42558;52.388;13.390;2023-03-13T07:06:41;7.57;90.61
57709;SHT35;42558;52.388;13.390;2023-03-13T07:09:09;7.58;90.64
57709;SHT35;42558;52.388;13.390;2023-03-13T07:11:38;7.59;90.63
57709;SHT35;42558;52.388;13.390;2023-03-13T07:14:06;7.60;90.70
57709;SHT35;42558;52.388;13.390;2023-03-13T07:16:45;7.62;90.78
57709;SHT35;42558;52.388;13.390;2023-03-13T07:19:15;7.66;90.69
57709;SHT35;42558;52.388;13.390;2023-03-13T07:21:46;7.69;90.70
57709;SHT35;42558;52.388;13.390;2023-03-13T07:24:15;7.69;90.71
57709;SHT35;42558;52.388;13.390;2023-03-13T07:26:45;7.69;90.73
57709;SHT35;42558;52.388;13.390;2023-03-13T07:29:32;7.73;90.76
57709;SHT35;42558;52.388;13.390;2023-03-13T07:32:02;7.74;90.80
57709;SHT35;42558;52.388;13.390;2023-03-13T07:34:30;7.75;90.94
57709;SHT35;42558;52.388;13.390;2023-03-13T07:36:59;7.76;91.01
57709;SHT35;42558;52.388;13.390;2023-03-13T07:39:27;7.78;91.14
57709;SHT35;42558;52.388;13.390;2023-03-13T07:41:56;7.81;91.17
57709;SHT35;42558;52.388;13.390;2023-03-13T07:44:24;7.83;91.14
57709;SHT35;42558;52.388;13.390;2023-03-13T07:46:53;7.87;91.25
57709;SHT35;42558;52.388;13.390;2023-03-13T07:49:21;7.92;91.23
57709;SHT35;42558;52.388;13.390;2023-03-13T07:51:50;7.97;91.20
57709;SHT35;42558;52.388;13.390;2023-03-13T07:54:18;8.01;91.19
57709;SHT35;42558;52.388;13.390;2023-03-13T07:56:47;8.05;91.17
57709;SHT35;42558;52.388;13.390;2023-03-13T07:59:15;8.11;91.14
57709;SHT35;42558;52.388;13.390;2023-03-13T08:01:43;8.17;91.05
57709;SHT35;42558;52.388;13.390;2023-03-13T08:04:12;8.20;91.08
57709;SHT35;42558;52.388;13.390;2023-03-13T08:06:40;8.21;91.13
57709;SHT35;42558;52.388;13.390;2023-03-13T08:09:09;8.25;91.26
57709;SHT35;42558;52.388;13.390;2023-03-13T08:11:38;8.30;91.22
57709;SHT35;42558;52.388;13.390;2023-03-13T08:14:12;8.34;91.27
57709;SHT35;42558;52.388;13.390;2023-03-13T08:16:40;8.35;91.37
57709;SHT35;42558;52.388;13.390;2023-03-13T08:19:09;8.36;91.59
57709;SHT35;42558;52.388;13.390;2023-03-13T08:21:37;8.37;91.75
57709;SHT35;42558;52.388;13.390;2023-03-13T08:24:06;8.42;91.78
57709;SHT35;42558;52.388;13.390;2023-03-13T08:26:40;8.48;91.80
57709;SHT35;42558;52.388;13.390;2023-03-13T08:29:11;8.51;91.71
57709;SHT35;42558;52.388;13.390;2023-03-13T08:31:46;8.51;91.77
57709;SHT35;42558;52.388;13.390;2023-03-13T08:34:19;8.52;91.87
57709;SHT35;42558;52.388;13.390;2023-03-13T08:36:49;8.53;92.05
57709;SHT35;42558;52.388;13.390;2023-03-13T08:39:21;8.59;92.08
57709;SHT35;42558;52.388;13.390;2023-03-13T08:41:51;8.63;92.04
57709;SHT35;42558;52.388;13.390;2023-03-13T08:44:20;8.64;92.06
57709;SHT35;42558;52.388;13.390;2023-03-13T08:46:50;8.71;91.81
57709;SHT35;42558;52.388;13.390;2023-03-13T08:49:20;8.75;91.71
57709;SHT35;42558;52.388;13.390;2023-03-13T08:51:50;8.78;91.57
57709;SHT35;42558;52.388;13.390;2023-03-13T08:54:20;8.81;91.38
57709;SHT35;42558;52.388;13.390;2023-03-13T08:56:50;8.86;91.21
57709;SHT35;42558;52.388;13.390;2023-03-13T08:59:19;8.89;91.06
57709;SHT35;42558;52.388;13.390;2023-03-13T09:01:49;8.92;90.94
57709;SHT35;42558;52.388;13.390;2023-03-13T09:04:19;8.96;90.74
57709;SHT35;42558;52.388;13.390;2023-03-13T09:06:49;8.99;90.47
57709;SHT35;42558;52.388;13.390;2023-03-13T09:09:19;9.04;90.12
57709;SHT35;42558;52.388;13.390;2023-03-13T09:11:48;9.08;90.02
57709;SHT35;42558;52.388;13.390;2023-03-13T09:14:18;9.09;89.94
57709;SHT35;42558;52.388;13.390;2023-03-13T09:16:48;9.14;89.62
57709;SHT35;42558;52.388;13.390;2023-03-13T09:19:18;9.23;88.99
57709;SHT35;42558;52.388;13.390;2023-03-13T09:21:47;9.28;88.58
57709;SHT35;42558;52.388;13.390;2023-03-13T09:24:17;9.26;88.77
57709;SHT35;42558;52.388;13.390;2023-03-13T09:26:48;9.26;88.86
57709;SHT35;42558;52.388;13.390;2023-03-13T09:29:29;9.32;88.84
57709;SHT35;42558;52.388;13.390;2023-03-13T09:31:59;9.29;89.24
57709;SHT35;42558;52.388;13.390;2023-03-13T09:34:29;9.22;89.66
57709;SHT35;42558;52.388;13.390;2023-03-13T09:37:00;9.25;89.82
57709;SHT35;42558;52.388;13.390;2023-03-13T09:39:30;9.28;89.91
57709;SHT35;42558;52.388;13.390;2023-03-13T09:42:01;9.30;90.03
57709;SHT35;42558;52.388;13.390;2023-03-13T09:50:11;9.57;89.30
57709;SHT35;42558;52.388;13.390;2023-03-13T09:52:49;9.67;88.95
57709;SHT35;42558;52.388;13.390;2023-03-13T09:55:27;9.73;88.72
57709;SHT35;42558;52.388;13.390;2023-03-13T10:00:52;9.79;88.48
57709;SHT35;42558;52.388;13.390;2023-03-13T10:03:29;9.82;88.39
57709;SHT35;42558;52.388;13.390;2023-03-13T10:06:20;9.81;88.29
57709;SHT35;42558;52.388;13.390;2023-03-13T10:08:53;9.77;88.42
57709;SHT35;42558;52.388;13.390;2023-03-13T10:11:27;9.77;88.55
57709;SHT35;42558;52.388;13.390;2023-03-13T10:14:16;9.76;88.76
57709;SHT35;42558;52.388;13.390;2023-03-13T10:17:09;9.76;89.11
57709;SHT35;42558;52.388;13.390;2023-03-13T10:19:43;9.81;89.39
57709;SHT35;42558;52.388;13.390;2023-03-13T10:22:16;9.91;89.15
57709;SHT35;42558;52.388;13.390;2023-03-13T10:24:58;9.99;88.91
57709;SHT35;42558;52.388;13.390;2023-03-13T10:27:48;10.11;88.51
57709;SHT35;42558;52.388;13.390;2023-03-13T10:30:24;10.21;88.06
57709;SHT35;42558;52.388;13.390;2023-03-13T10:35:40;10.32;87.71
57709;SHT35;42558;52.388;13.390;2023-03-13T10:38:13;10.35;87.65
57709;SHT35;42558;52.388;13.390;2023-03-13T10:40:58;10.39;87.60
57709;SHT35;42558;52.388;13.390;2023-03-13T10:43:33;10.48;87.69
57709;SHT35;42558;52.388;13.390;2023-03-13T10:46:03;10.59;87.39
57709;SHT35;42558;52.388;13.390;2023-03-13T10:48:35;10.74;87.05
57709;SHT35;42558;52.388;13.390;2023-03-13T10:51:09;10.83;86.66
57709;SHT35;42558;52.388;13.390;2023-03-13T10:53:51;10.93;86.42
57709;SHT35;42558;52.388;13.390;2023-03-13T10:56:23;11.04;86.29
57709;SHT35;42558;52.388;13.390;2023-03-13T10:58:58;11.14;86.01
57709;SHT35;42558;52.388;13.390;2023-03-13T11:01:29;11.20;85.64
57709;SHT35;42558;52.388;13.390;2023-03-13T11:07:14;11.31;85.36
57709;SHT35;42558;52.388;13.390;2023-03-13T11:10:28;11.40;85.15
57709;SHT35;42558;52.388;13.390;2023-03-13T11:12:53;11.51;84.83
57709;SHT35;42558;52.388;13.390;2023-03-13T11:15:34;11.64;84.54
57709;SHT35;42558;52.388;13.390;2023-03-13T11:18:21;11.72;84.31
57709;SHT35;42558;52.388;13.390;2023-03-13T11:20:58;11.83;83.99
57709;SHT35;42558;52.388;13.390;2023-03-13T11:23:44;11.99;83.60
57709;SHT35;42558;52.388;13.390;2023-03-13T11:26:34;12.11;83.22
57709;SHT35;42558;52.388;13.390;2023-03-13T11:29:38;12.20;82.94
57709;SHT35;42558;52.388;13.390;2023-03-13T11:53:21;12.85;80.25
57709;SHT35;42558;52.388;13.390;2023-03-13T11:56:14;12.83;80.63
57709;SHT35;42558;52.388;13.390;2023-03-13T11:58:55;12.86;80.51
57709;SHT35;42558;52.388;13.390;2023-03-13T12:04:56;13.06;79.64
57709;SHT35;42558;52.388;13.390;2023-03-13T12:07:40;13.18;79.55
57709;SHT35;42558;52.388;13.390;2023-03-13T12:10:24;13.23;79.37
57709;SHT35;42558;52.388;13.390;2023-03-13T12:15:49;13.36;79.08
57709;SHT35;42558;52.388;13.390;2023-03-13T12:18:39;13.53;78.64
57709;SHT35;42558;52.388;13.390;2023-03-13T12:21:16;13.70;78.77
57709;SHT35;42558;52.388;13.390;2023-03-13T12:24:10;14.16;77.95
57709;SHT35;42558;52.388;13.390;2023-03-13T12:26:58;14.51;76.89
57709;SHT35;42558;52.388;13.390;2023-03-13T12:29:47;14.54;75.91
57709;SHT35;42558;52.388;13.390;2023-03-13T12:35:30;14.84;75.12
57709;SHT35;42558;52.388;13.390;2023-03-13T12:38:11;14.95;75.51
57709;SHT35;42558;52.388;13.390;2023-03-13T12:41:18;14.90;74.80
57709;SHT35;42558;52.388;13.390;2023-03-13T12:43:56;14.64;75.27
57709;SHT35;42558;52.388;13.390;2023-03-13T12:46:57;14.63;75.08
57709;SHT35;42558;52.388;13.390;2023-03-13T12:59:03;15.48;73.09
57709;SHT35;42558;52.388;13.390;2023-03-13T13:01:42;15.73;72.55
57709;SHT35;42558;52.388;13.390;2023-03-13T13:04:18;15.88;71.92
57709;SHT35;42558;52.388;13.390;2023-03-13T13:12:45;16.15;69.92
57709;SHT35;42558;52.388;13.390;2023-03-13T13:15:46;16.10;70.76
57709;SHT35;42558;52.388;13.390;2023-03-13T13:18:27;16.18;69.90
57709;SHT35;42558;52.388;13.390;2023-03-13T13:23:35;16.08;70.46
57709;SHT35;42558;52.388;13.390;2023-03-13T13:28:59;16.12;70.30
57709;SHT35;42558;52.388;13.390;2023-03-13T13:37:01;15.93;69.80
57709;SHT35;42558;52.388;13.390;2023-03-13T13:39:48;15.99;69.98
57709;SHT35;42558;52.388;13.390;2023-03-13T13:45:03;15.97;70.11
57709;SHT35;42558;52.388;13.390;2023-03-13T13:47:43;15.88;69.58
57709;SHT35;42558;52.388;13.390;2023-03-13T13:50:18;15.89;69.23
57709;SHT35;42558;52.388;13.390;2023-03-13T14:02:09;15.72;70.40
57709;SHT35;42558;52.388;13.390;2023-03-13T14:04:55;15.78;70.35
57709;SHT35;42558;52.388;13.390;2023-03-13T14:10:41;16.05;69.70
57709;SHT35;42558;52.388;13.390;2023-03-13T14:13:17;16.19;69.44
57709;SHT35;42558;52.388;13.390;2023-03-13T14:15:50;16.29;68.92
57709;SHT35;42558;52.388;13.390;2023-03-13T14:18:28;16.35;69.19
57709;SHT35;42558;52.388;13.390;2023-03-13T14:21:00;16.19;69.11
57709;SHT35;42558;52.388;13.390;2023-03-13T14:23:43;16.06;69.38
57709;SHT35;42558;52.388;13.390;2023-03-13T14:26:19;16.10;69.39
57709;SHT35;42558;52.388;13.390;2023-03-13T14:28:52;16.16;69.78
57709;SHT35;42558;52.388;13.390;2023-03-13T14:31:25;16.25;69.34
57709;SHT35;42558;52.388;13.390;2023-03-13T14:34:02;16.21;68.97
57709;SHT35;42558;52.388;13.390;2023-03-13T14:36:49;16.20;68.81
57709;SHT35;42558;52.388;13.390;2023-03-13T14:42:55;16.32;68.72
57709;SHT35;42558;52.388;13.390;2023-03-13T14:45:32;16.24;68.50
57709;SHT35;42558;52.388;13.390;2023-03-13T14:48:13;16.18;68.99
57709;SHT35;42558;52.388;13.390;2023-03-13T14:50:50;16.13;68.94
57709;SHT35;42558;52.388;13.390;2023-03-13T14:53:59;16.08;69.27
57709;SHT35;42558;52.388;13.390;2023-03-13T14:56:35;16.15;68.98
57709;SHT35;42558;52.388;13.390;2023-03-13T15:01:46;16.14;69.12
57709;SHT35;42558;52.388;13.390;2023-03-13T15:04:46;16.10;68.84
57709;SHT35;42558;52.388;13.390;2023-03-13T15:07:21;16.15;68.82
57709;SHT35;42558;52.388;13.390;2023-03-13T15:09:52;16.34;67.99
57709;SHT35;42558;52.388;13.390;2023-03-13T15:12:22;16.49;67.68
57709;SHT35;42558;52.388;13.390;2023-03-13T15:14:52;16.64;67.40
57709;SHT35;42558;52.388;13.390;2023-03-13T15:17:23;16.49;67.66
57709;SHT35;42558;52.388;13.390;2023-03-13T15:19:56;16.47;67.96
57709;SHT35;42558;52.388;13.390;2023-03-13T15:22:28;16.28;68.63
57709;SHT35;42558;52.388;13.390;2023-03-13T15:25:01;16.23;68.90
57709;SHT35;42558;52.388;13.390;2023-03-13T15:27:42;16.25;68.78
57709;SHT35;42558;52.388;13.390;2023-03-13T15:30:15;16.31;68.97
57709;SHT35;42558;52.388;13.390;2023-03-13T15:32:48;16.41;69.02
57709;SHT35;42558;52.388;13.390;2023-03-13T15:35:28;16.27;68.97
57709;SHT35;42558;52.388;13.390;2023-03-13T15:38:01;16.01;69.56
57709;SHT35;42558;52.388;13.390;2023-03-13T15:40:31;15.77;70.31
57709;SHT35;42558;52.388;13.390;2023-03-13T15:43:01;15.68;70.63
57709;SHT35;42558;52.388;13.390;2023-03-13T15:45:30;15.64;70.96
57709;SHT35;42558;52.388;13.390;2023-03-13T15:48:01;15.53;71.11
57709;SHT35;42558;52.388;13.390;2023-03-13T15:50:40;15.47;71.35
57709;SHT35;42558;52.388;13.390;2023-03-13T15:53:15;15.49;71.29
57709;SHT35;42558;52.388;13.390;2023-03-13T15:55:50;15.49;71.20
57709;SHT35;42558;52.388;13.390;2023-03-13T15:58:22;15.43;71.34
57709;SHT35;42558;52.388;13.390;2023-03-13T16:00:54;15.35;71.71
57709;SHT35;42558;52.388;13.390;2023-03-13T16:03:26;15.26;71.99
57709;SHT35;42558;52.388;13.390;2023-03-13T16:05:57;15.24;71.83
57709;SHT35;42558;52.388;13.390;2023-03-13T16:08:27;15.23;71.87
57709;SHT35;42558;52.388;13.390;2023-03-13T16:11:05;15.22;71.88
57709;SHT35;42558;52.388;13.390;2023-03-13T16:13:35;15.24;71.57
57709;SHT35;42558;52.388;13.390;2023-03-13T16:16:17;15.23;71.66
57709;SHT35;42558;52.388;13.390;2023-03-13T16:18:51;15.15;71.81
57709;SHT35;42558;52.388;13.390;2023-03-13T16:21:28;15.11;71.92
57709;SHT35;42558;52.388;13.390;2023-03-13T16:23:59;15.11;71.90
57709;SHT35;42558;52.388;13.390;2023-03-13T16:26:27;15.05;72.03
57709;SHT35;42558;52.388;13.390;2023-03-13T16:28:58;15.04;71.97
57709;SHT35;42558;52.388;13.390;2023-03-13T16:31:32;14.94;72.27
57709;SHT35;42558;52.388;13.390;2023-03-13T16:33:59;14.89;72.39
57709;SHT35;42558;52.388;13.390;2023-03-13T16:36:30;14.86;72.53
57709;SHT35;42558;52.388;13.390;2023-03-13T16:39:02;14.86;72.44
57709;SHT35;42558;52.388;13.390;2023-03-13T16:41:36;14.80;72.64
57709;SHT35;42558;52.388;13.390;2023-03-13T16:44:03;14.80;72.50
57709;SHT35;42558;52.388;13.390;2023-03-13T16:46:37;14.80;72.44
57709;SHT35;42558;52.388;13.390;2023-03-13T16:49:10;14.76;72.56
57709;SHT35;42558;52.388;13.390;2023-03-13T16:51:43;14.76;72.58
57709;SHT35;42558;52.388;13.390;2023-03-13T16:54:13;14.74;72.60
57709;SHT35;42558;52.388;13.390;2023-03-13T16:56:42;14.63;73.05
57709;SHT35;42558;52.388;13.390;2023-03-13T16:59:16;14.56;73.33
57709;SHT35;42558;52.388;13.390;2023-03-13T17:01:47;14.54;73.36
57709;SHT35;42558;52.388;13.390;2023-03-13T17:04:17;14.52;73.40
57709;SHT35;42558;52.388;13.390;2023-03-13T17:06:47;14.48;73.57
57709;SHT35;42558;52.388;13.390;2023-03-13T17:09:16;14.40;73.80
57709;SHT35;42558;52.388;13.390;2023-03-13T17:11:47;14.46;73.60
57709;SHT35;42558;52.388;13.390;2023-03-13T17:14:17;14.38;73.89
57709;SHT35;42558;52.388;13.390;2023-03-13T17:16:47;14.36;73.92
57709;SHT35;42558;52.388;13.390;2023-03-13T17:19:17;14.30;74.07
57709;SHT35;42558;52.388;13.390;2023-03-13T17:21:46;14.29;74.07
57709;SHT35;42558;52.388;13.390;2023-03-13T17:24:17;14.33;73.95
57709;SHT35;42558;52.388;13.390;2023-03-13T17:26:46;14.31;73.94
57709;SHT35;42558;52.388;13.390;2023-03-13T17:29:17;14.27;74.12
57709;SHT35;42558;52.388;13.390;2023-03-13T17:31:47;14.31;73.91
57709;SHT35;42558;52.388;13.390;2023-03-13T17:34:16;14.31;73.92
57709;SHT35;42558;52.388;13.390;2023-03-13T17:36:47;14.29;74.03
57709;SHT35;42558;52.388;13.390;2023-03-13T17:39:17;14.31;73.96
57709;SHT35;42558;52.388;13.390;2023-03-13T17:41:49;14.20;74.33
57709;SHT35;42558;52.388;13.390;2023-03-13T17:44:17;14.16;74.52